AirNav   ProFlight Series 2 Aviation Headset
 
 1131 users online  

04FD Tampa General Hospital Brandon Healthplex Heliport
Brandon, Florida, USA

GOING TO BRANDON?


FAA INFORMATION EFFECTIVE 13 AUGUST 2020

Location

FAA Identifier: 04FD
Lat/Long: 27-55-45.7400N 082-20-13.1400W
27-55.762333N 082-20.219000W
27.9293722,-82.3369833
(estimated)
Elevation: 37.4 ft. / 11 m (estimated)
From city: 7 miles W of BRANDON, FL
Time zone: UTC -4 (UTC -5 during Standard Time)
Zip code: 33619

Heliport Operations

Heliport use: Private use. Permission required prior to landing
Activation date: 04/2017
Control tower: no
ARTCC: MIAMI CENTER
FSS: SAINT PETERSBURG FLIGHT SERVICE STATION
Attendance: 
Wind indicator: yes
Segmented circle: no

Heliport Communications

WX AWOS-3 at VDF (5 nm N): 121.125 (813-630-0924)
WX AWOS-3 at TPF (6 nm W): 118.925 (813-251-6824)
WX AWOS-3 at PCM (10 nm NE): 120.025 (813-764-8259)
WX ASOS at TPA (11 nm W): PHONE 813-873-7228
WX AWOS-3PT at LAL (17 nm E): 118.025 (863-834-2030)
WX ASOS at SPG (18 nm SW): 118.875 (727-821-4334)
WX ASOS at PIE (19 nm W): PHONE 727-531-3456

Nearby radio navigation aids

VOR radial/distance  VOR name  Freq  Var
LALr258/17.5LAKELAND VORTAC116.0001E
PIEr091/18.5ST PETERSBURG VORTAC116.4005W
SRQr026/33.6SARASOTA VOR/DME117.0005W

 
NDB name  Hdg/Dist  Freq  Var  ID
COSME138/13.736805WTP - .--.

Heliport Services

Runway Information

Helipad H1

Dimensions: 40 x 40 ft. / 12 x 12 m
Surface: concrete, in good condition
Latitude: 27-55.762333N
Longitude: 082-20.219000W
Elevation: 37.4 ft.
Traffic pattern: leftleft

Heliport Ownership and Management from official FAA records

Ownership: Privately-owned
Owner: HILLSBOROUGH CTY HOSP AUTH
10740 PALM RIVER RD
TAMPA, FL 33619
Phone 813-844-7400
HILLSBOROUGH CTY HOSPITAL AUTH/TAMPA GEN HOSPITAL
Manager: MICHELE MORAN
TAMPA GENERAL HOSPITAL, 1 TAMPA GENERAL CIRCLE
TAMPA, FL 33606
Phone 813-844-3282
DIR EMERG, TRAUMA SVCS & AEROMED

Additional Remarks

FOR CD CTC TAMPA APCH AT 813-878-2528

Instrument Procedures

There are no published instrument procedures at 04FD.

Some nearby airports with instrument procedures:

KVDF - Tampa Executive Airport (5 nm N)
KTPF - Peter O Knight Airport (6 nm W)
KPCM - Plant City Airport (10 nm NE)
KTPA - Tampa International Airport (11 nm W)
KMCF - MacDill Air Force Base (11 nm SW)
KLAL - Lakeland Linder International Airport (17 nm E)
KSPG - Albert Whitted Airport (18 nm SW)
KPIE - St Pete-Clearwater International Airport (19 nm W)
 
Loc | Ops | Rwys | IFR | FBO | Links
Com | Nav | Svcs | Stats | Notes
Aerial photo
No photo
 
Airport distance calculator
Flying to Tampa General Hospital Brandon Healthplex Heliport? Find the distance to fly.

From to 04FD

Sunrise and sunset
Times for 14-Aug-2020
 Local
(UTC-4)
 Zulu
(UTC)
Morning civil twilight06:3610:36
Sunrise07:0011:00
Sunset20:0700:07
Evening civil twilight20:3200:32

Current date and time
Zulu (UTC)  14-Aug-2020 23:06:07
Local (UTC-4)  14-Aug-2020 19:06:07
 
METAR
KVDF 
5nm N 
142255Z AUTO 00000KT 10SM CLR 31/25 A2995 RMK AO2
KTPF 
6nm W 
142255Z AUTO 31003KT 10SM OVC100 32/26 A2994 RMK AO2
KPCM 
10nm NE 
142255Z AUTO 32003KT 10SM CLR 31/26 A2997 RMK AO2
KTPA 
11nm W 
142253Z 28006KT 10SM FEW035 FEW190 BKN300 32/22 A2995 RMK AO2 SLP140 CB DSNT SE TCU DSNT N-S T03170222
KMCF 
11nm SW 
142256Z AUTO 31005KT 10SM FEW210 32/24 A2994 RMK AO2 SLP142 T03190237 FZRANO $
KLAL 
17nm E 
142254Z 33006KT 10SM SKC 31/23 A2995
KPIE 
18nm W 
142253Z 29006KT 10SM CLR 32/24 A2994 RMK AO2 SLP139 T03170244
KSPG 
19nm SW 
142253Z 29005KT 10SM CLR 31/24 A2992 RMK AO2 SLP132 T03110244
TAF
KTPA 
11nm W 
142100Z 1421/1524 24007KT P6SM VCTS SCT040CB SCT250 TEMPO 1421/1422 VRB15G25KT 3SM TSRA BKN025CB FM142200 26008KT P6SM SCT040 SCT100 BKN250 FM150100 VRB03KT P6SM SCT040 SCT100 BKN250 FM150600 00000KT P6SM FEW035 SCT250 FM151400 23005KT P6SM SCT035 SCT250 FM151800 24008KT P6SM VCTS SCT040CB SCT250
KMCF 
11nm SW 
141807Z 1418/1600 VRB06KT 9999 SCT010 QNH3001INS TEMPO 1418/1423 11015KT 9000 -TSRA BKN030CB BECMG 1500/1501 VRB06KT 9999 FEW030 SCT040 BKN050 QNH2996INS BECMG 1518/1519 11006KT 9999 VCTS SCT020 BKN040CB QNH2999INS TX33/1419Z TN25/1512Z
KLAL 
17nm E 
141720Z 1418/1518 22005KT P6SM VCTS SCT040CB SCT250 TEMPO 1419/1423 VRB15G25KT 3SM TSRA BKN025CB FM150100 VRB03KT P6SM SCT040 SCT100 BKN250 FM150600 00000KT P6SM FEW035 SCT250 FM151400 24005KT P6SM SCT035 SCT250
KPIE 
18nm W 
141720Z 1418/1518 06006KT P6SM VCTS SCT040CB SCT250 TEMPO 1418/1422 VRB15G25KT 3SM TSRA BKN025CB FM142200 29007KT P6SM SCT040 SCT100 BKN250 FM150100 VRB03KT P6SM SCT040 SCT100 BKN250 FM150600 00000KT P6SM FEW035 SCT250 FM151400 24007KT P6SM SCT035 SCT250
NOTAMs
Click for the latest NOTAMs
NOTAMs are issued by the DoD/FAA and will open in a separate window not controlled by AirNav.

 

 
 

Would you like to see your business listed on this page?

 If your business provides an interesting product or service to pilots, flight crews, aircraft, or users of the Tampa General Hospital Brandon Healthplex Heliport, you should consider listing it here.  To start the listing process, click on the button below
 
Add a business
 

Other Pages about Tampa General Hospital Brandon Healthplex Heliport

Update a link
 
Copyright © AirNav, LLC. All rights reserved. Privacy Policy  Contact